Time;durP1;ratioP1;P1;durP2;ratioP2;P2;SDS_P1;SDS_P2;PMS_P1;PMS_P2;Temp;Humidity;BMP_temperature;BMP_pressure;BME280_temperature;BME280_humidity;BME280_pressure;Samples;Min_cycle;Max_cycle;Signal;HPM_P1;HPM_P2
2021/08/01 00:05:52;;;;;;;16.82;10.50;;;;;;;17.69;94.58;98441.52;3975213;87;21114;-83
2021/08/01 00:11:53;;;;;;;11.78;8.50;;;;;;;17.71;94.07;98439.07;4066256;86;21074;-82
2021/08/01 00:17:54;;;;;;;12.07;9.40;;;;;;;17.74;93.96;98445.15;3979906;86;21011;-82
2021/08/01 00:23:56;;;;;;;12.45;9.15;;;;;;;17.73;93.93;98449.11;4131174;84;21083;-83
2021/08/01 00:29:57;;;;;;;17.70;8.10;;;;;;;17.74;94.42;98445.75;4134630;84;21491;-83
2021/08/01 00:35:58;;;;;;;11.55;8.70;;;;;;;17.76;94.20;98446.85;4134151;84;21038;-83
2021/08/01 00:41:59;;;;;;;12.47;9.00;;;;;;;17.65;93.65;98438.05;4141770;84;22304;-83
2021/08/01 00:48:01;;;;;;;13.98;9.10;;;;;;;17.53;93.62;98451.22;3998472;86;21655;-82
2021/08/01 00:54:04;;;;;;;14.98;8.45;;;;;;;17.48;93.98;98441.29;4028128;85;21673;-82
2021/08/01 01:01:03;;;;;;;14.28;8.90;;;;;;;17.42;94.33;98453.44;4034825;86;21056;-82
2021/08/01 01:06:42;;;;;;;14.70;9.70;;;;;;;17.58;94.48;98454.06;4033538;85;21597;-82
2021/08/01 01:12:56;;;;;;;12.53;9.23;;;;;;;17.55;93.96;98450.78;4049894;86;21095;-82
2021/08/01 01:19:00;;;;;;;13.35;9.15;;;;;;;17.40;93.97;98457.23;4053122;86;21064;-82
2021/08/01 01:25:11;;;;;;;16.25;8.53;;;;;;;17.31;94.05;98465.97;4054794;85;21574;-82
2021/08/01 01:31:48;;;;;;;12.47;8.30;;;;;;;17.33;94.57;98453.28;4132150;84;21088;-82
2021/08/01 01:37:52;;;;;;;12.63;8.38;;;;;;;17.36;94.63;98455.77;4091365;84;21024;-83
2021/08/01 01:44:12;;;;;;;12.70;9.43;;;;;;;17.33;94.56;98442.21;4132269;84;21448;-82
2021/08/01 01:50:20;;;;;;;12.68;9.00;;;;;;;17.18;93.85;98418.26;4127512;84;21007;-82
2021/08/01 01:56:23;;;;;;;15.32;9.30;;;;;;;17.06;94.22;98418.17;4066855;85;21120;-82
2021/08/01 02:02:25;;;;;;;9.68;8.35;;;;;;;17.04;94.56;98413.66;4069413;85;21046;-82
2021/08/01 02:08:30;;;;;;;12.10;9.03;;;;;;;17.11;94.63;98406.59;4015448;86;21054;-83
2021/08/01 02:15:06;;;;;;;11.73;7.37;;;;;;;16.99;94.57;98413.58;4069060;85;21587;-82
2021/08/01 02:21:08;;;;;;;12.05;8.33;;;;;;;17.14;95.54;98408.50;3973262;86;21605;-82
2021/08/01 02:27:11;;;;;;;14.80;9.45;;;;;;;17.06;94.98;98394.66;4131622;84;21039;-83
2021/08/01 02:33:13;;;;;;;15.23;8.60;;;;;;;16.98;94.95;98391.30;4133037;84;21006;-83
2021/08/01 02:39:17;;;;;;;9.28;7.83;;;;;;;16.98;95.22;98387.75;4132263;84;21032;-83
2021/08/01 02:45:18;;;;;;;10.63;8.40;;;;;;;17.00;95.41;98393.63;4143772;84;21593;-82
2021/08/01 02:51:21;;;;;;;11.80;8.35;;;;;;;17.06;95.60;98391.30;4129244;84;21479;-82
2021/08/01 02:57:26;;;;;;;11.85;7.78;;;;;;;16.96;95.03;98386.80;4133898;84;21089;-83
2021/08/01 03:03:28;;;;;;;12.53;9.08;;;;;;;16.91;95.76;98385.17;4120854;84;21062;-83
2021/08/01 03:09:31;;;;;;;12.98;9.08;;;;;;;16.95;95.19;98387.23;4047293;85;21137;-83
2021/08/01 03:15:33;;;;;;;11.03;8.78;;;;;;;16.87;95.34;98369.25;3978067;86;21118;-82
2021/08/01 03:21:34;;;;;;;14.60;9.75;;;;;;;16.85;95.47;98360.01;4051545;85;21083;-84
2021/08/01 03:27:37;;;;;;;12.15;9.10;;;;;;;16.77;95.54;98364.14;4081044;85;21425;-83
2021/08/01 03:33:39;;;;;;;12.58;9.50;;;;;;;16.75;95.79;98377.64;4158632;84;21600;-83
2021/08/01 03:39:41;;;;;;;14.70;10.10;;;;;;;16.82;96.62;98386.34;4148024;84;21055;-83
2021/08/01 03:45:43;;;;;;;16.97;9.75;;;;;;;16.84;96.60;98379.80;4136186;84;22438;-83
2021/08/01 03:51:44;;;;;;;13.20;9.18;;;;;;;16.92;97.08;98358.47;4127466;84;21087;-82
2021/08/01 03:57:46;;;;;;;13.38;9.08;;;;;;;16.99;96.83;98332.02;4134289;84;21027;-83
2021/08/01 04:03:47;;;;;;;15.20;9.28;;;;;;;17.03;96.98;98328.58;4083230;86;21612;-83
2021/08/01 04:09:48;;;;;;;16.23;9.50;;;;;;;17.09;97.15;98304.71;4081112;85;21627;-83
2021/08/01 04:15:49;;;;;;;13.15;8.63;;;;;;;17.17;97.46;98323.28;4086655;85;21052;-82
2021/08/01 04:21:51;;;;;;;15.18;9.35;;;;;;;17.35;97.46;98338.03;4058320;86;21005;-83
2021/08/01 04:27:53;;;;;;;15.78;10.20;;;;;;;17.42;97.22;98339.22;4066369;85;21044;-82
2021/08/01 04:33:54;;;;;;;11.63;9.45;;;;;;;17.39;97.15;98317.95;4082765;85;21002;-83
2021/08/01 04:39:56;;;;;;;16.40;8.80;;;;;;;17.42;97.32;98337.83;3990725;86;20988;-83
2021/08/01 04:45:59;;;;;;;15.05;8.80;;;;;;;17.54;97.79;98351.76;4080119;84;21070;-82
2021/08/01 04:52:01;;;;;;;21.87;9.65;;;;;;;17.71;97.79;98333.88;4078811;85;21042;-82
2021/08/01 04:58:03;;;;;;;12.00;8.98;;;;;;;17.95;97.77;98346.27;4037943;86;21440;-82
2021/08/01 05:04:05;;;;;;;13.53;8.00;;;;;;;18.15;97.57;98367.63;4072074;85;21055;-82
2021/08/01 05:10:07;;;;;;;17.90;8.93;;;;;;;18.32;97.22;98369.73;3990534;86;21062;-84
2021/08/01 05:16:10;;;;;;;12.10;8.75;;;;;;;18.50;97.14;98360.30;3953172;87;21047;-83
2021/08/01 05:22:13;;;;;;;10.10;8.43;;;;;;;18.57;97.40;98351.14;4035709;86;21057;-82
2021/08/01 05:28:14;;;;;;;12.23;8.40;;;;;;;18.68;97.02;98379.94;4061181;86;21043;-83
2021/08/01 05:34:15;;;;;;;13.53;9.03;;;;;;;18.77;96.78;98380.05;3966375;87;21351;-82
2021/08/01 05:40:17;;;;;;;15.30;8.55;;;;;;;18.76;96.85;98380.48;4055505;85;21100;-83
2021/08/01 05:46:18;;;;;;;12.75;7.90;;;;;;;18.82;96.84;98378.71;4121829;84;21050;-83
2021/08/01 05:52:19;;;;;;;13.88;8.90;;;;;;;18.86;96.79;98381.53;4133040;84;21039;-82
2021/08/01 05:58:20;;;;;;;11.28;7.55;;;;;;;18.89;96.76;98362.62;4136956;84;22138;-83
2021/08/01 06:04:21;;;;;;;10.15;7.22;;;;;;;18.90;96.73;98378.66;4124964;84;21031;-82
2021/08/01 06:10:23;;;;;;;8.78;7.10;;;;;;;18.88;96.92;98380.48;4111493;84;21580;-83
2021/08/01 06:16:24;;;;;;;10.25;7.28;;;;;;;18.92;96.94;98371.43;4062372;84;21060;-82
2021/08/01 06:22:26;;;;;;;12.10;7.90;;;;;;;18.98;97.00;98368.89;4050056;85;21057;-83
2021/08/01 06:28:27;;;;;;;10.78;7.62;;;;;;;19.03;96.82;98360.02;3976511;87;21078;-83
2021/08/01 06:34:29;;;;;;;13.53;8.13;;;;;;;19.09;97.11;98354.82;4047095;85;22316;-83
2021/08/01 06:40:30;;;;;;;11.95;9.08;;;;;;;19.20;97.12;98342.76;4134713;83;21547;-83
2021/08/01 06:46:32;;;;;;;12.98;8.08;;;;;;;19.35;97.15;98347.25;4132058;83;21017;-83
2021/08/01 06:52:33;;;;;;;16.07;9.13;;;;;;;19.50;97.01;98353.86;4133525;83;21004;-83
2021/08/01 06:58:34;;;;;;;15.75;8.70;;;;;;;19.61;96.60;98354.27;4132393;84;21702;-83
2021/08/01 07:04:36;;;;;;;17.48;8.68;;;;;;;19.72;96.35;98368.55;4130727;84;21404;-83
2021/08/01 07:10:37;;;;;;;15.35;8.43;;;;;;;19.85;96.43;98361.73;4124633;84;21531;-83
2021/08/01 07:16:44;;;;;;;14.23;8.58;;;;;;;19.94;96.28;98352.67;4117236;84;21558;-83
2021/08/01 07:22:45;;;;;;;12.57;8.57;;;;;;;20.01;96.21;98344.84;4124194;84;21051;-83
2021/08/01 07:28:47;;;;;;;15.05;8.35;;;;;;;20.06;96.28;98344.27;4060116;86;21499;-83
2021/08/01 07:34:49;;;;;;;9.80;7.00;;;;;;;20.13;95.96;98346.83;4090742;85;21061;-83
2021/08/01 07:40:50;;;;;;;12.23;8.40;;;;;;;20.15;95.66;98349.16;4147061;84;21030;-83
2021/08/01 07:46:52;;;;;;;9.85;7.20;;;;;;;20.13;95.27;98326.56;4146649;84;21047;-84
2021/08/01 07:52:53;;;;;;;10.43;8.45;;;;;;;20.17;95.49;98296.69;4143512;84;21062;-84
2021/08/01 07:58:54;;;;;;;11.75;8.10;;;;;;;20.26;95.84;98255.64;4126046;84;22067;-84
2021/08/01 08:04:55;;;;;;;13.00;9.08;;;;;;;20.33;95.68;98232.51;4150776;84;21015;-83
2021/08/01 08:10:58;;;;;;;10.08;7.37;;;;;;;20.37;95.98;98219.26;4137102;84;21044;-84
2021/08/01 08:16:59;;;;;;;14.13;9.28;;;;;;;20.49;96.05;98242.59;4123742;84;21093;-84
2021/08/01 08:23:00;;;;;;;9.23;7.17;;;;;;;20.58;95.79;98230.89;4121940;84;21052;-83
2021/08/01 08:29:03;;;;;;;7.97;7.17;;;;;;;20.68;95.93;98216.39;4048862;86;21198;-84
2021/08/01 08:35:06;;;;;;;7.75;6.50;;;;;;;20.76;95.69;98198.95;4084971;85;21145;-84
2021/08/01 08:41:14;;;;;;;14.93;7.83;;;;;;;20.83;95.45;98212.55;4054308;86;30762;-83
2021/08/01 08:47:19;;;;;;;7.30;6.30;;;;;;;20.99;95.45;98210.91;4169431;83;20988;-84
2021/08/01 08:53:23;;;;;;;7.33;5.92;;;;;;;21.11;95.09;98227.31;4165143;83;21091;-84
2021/08/01 08:59:26;;;;;;;10.53;7.90;;;;;;;21.15;94.97;98246.79;4167190;83;21480;-83
2021/08/01 09:05:28;;;;;;;9.23;5.97;;;;;;;21.02;94.96;98302.41;4167026;83;21055;-83
2021/08/01 09:11:30;;;;;;;9.83;6.80;;;;;;;21.01;95.28;98330.87;4117993;84;21570;-83
2021/08/01 09:17:40;;;;;;;8.38;6.83;;;;;;;20.94;95.24;98333.89;4187133;83;21051;-82
2021/08/01 09:23:47;;;;;;;10.15;6.90;;;;;;;20.83;95.28;98357.83;4158511;83;21051;-82
2021/08/01 09:29:50;;;;;;;13.08;7.95;;;;;;;20.72;95.25;98361.02;4172745;83;21917;-83
2021/08/01 09:36:12;;;;;;;12.35;7.80;;;;;;;20.60;95.42;98369.45;4121462;84;21074;-83
2021/08/01 09:42:13;;;;;;;11.18;6.60;;;;;;;20.52;95.66;98356.45;4106101;84;21077;-83
2021/08/01 09:48:21;;;;;;;9.73;6.28;;;;;;;20.52;95.61;98323.69;4118787;84;21035;-83
2021/08/01 09:54:26;;;;;;;9.95;5.65;;;;;;;20.38;95.04;98270.83;4136502;83;21090;-82
2021/08/01 10:00:27;;;;;;;6.92;4.80;;;;;;;20.20;95.10;98242.98;4193685;83;21040;-82
2021/08/01 10:06:29;;;;;;;7.83;4.25;;;;;;;20.05;94.61;98288.55;4171972;83;21038;-83
2021/08/01 10:12:34;;;;;;;6.28;4.47;;;;;;;20.07;94.56;98252.77;4173463;83;21039;-82
2021/08/01 10:18:38;;;;;;;5.80;4.70;;;;;;;20.17;93.91;98221.02;4102892;84;21062;-81
2021/08/01 10:24:43;;;;;;;5.33;4.30;;;;;;;20.36;93.23;98159.33;4158856;84;21087;-81
2021/08/01 10:30:45;;;;;;;6.15;4.72;;;;;;;21.02;91.50;98126.51;4129893;84;21980;-83
2021/08/01 10:36:50;;;;;;;5.15;3.22;;;;;;;21.16;90.36;98138.39;4128238;84;21064;-82
2021/08/01 10:43:11;;;;;;;3.62;2.75;;;;;;;21.00;88.77;98176.91;4127713;84;21086;-82
2021/08/01 10:49:13;;;;;;;4.50;2.80;;;;;;;20.82;88.23;98164.34;4123661;84;21537;-82
2021/08/01 10:55:24;;;;;;;4.35;2.47;;;;;;;20.68;88.58;98165.73;4080908;85;21430;-82
2021/08/01 11:01:26;;;;;;;5.28;2.58;;;;;;;20.60;88.52;98178.38;4086245;85;21039;-82
2021/08/01 11:07:33;;;;;;;2.85;2.40;;;;;;;20.53;88.77;98170.95;4060746;86;21445;-83
2021/08/01 11:13:38;;;;;;;;;;;;;;;20.52;88.98;98142.98;4040085;85;22058;-82
2021/08/01 11:19:39;;;;;;;6.80;2.75;;;;;;;20.48;89.50;98138.20;4046683;85;20136;-79
2021/08/01 11:25:44;;;;;;;4.92;2.25;;;;;;;20.53;89.66;98135.57;4048662;85;21384;-82
2021/08/01 11:31:50;;;;;;;5.37;2.75;;;;;;;20.68;90.88;98100.98;4091907;85;21039;-82
2021/08/01 11:38:08;;;;;;;;;;;;;;;20.72;91.13;98134.36;4026987;85;21091;-82
2021/08/01 11:44:20;;;;;;;3.12;2.17;;;;;;;20.64;90.74;98113.64;4075536;84;20178;-82
2021/08/01 11:50:27;;;;;;;2.22;1.98;;;;;;;20.71;89.72;98105.02;4085469;84;21477;-82
2021/08/01 11:56:28;;;;;;;3.42;2.30;;;;;;;20.76;90.82;98098.84;4089079;84;22189;-82
2021/08/01 12:02:30;;;;;;;3.15;2.33;;;;;;;20.77;90.28;98082.91;4170419;83;21535;-82
2021/08/01 12:08:34;;;;;;;7.22;2.45;;;;;;;20.80;90.65;98082.75;4184946;83;21574;-82
2021/08/01 12:14:40;;;;;;;3.58;2.00;;;;;;;20.79;91.04;98092.34;4165685;83;21592;-82
2021/08/01 12:20:42;;;;;;;2.87;2.20;;;;;;;20.80;90.99;98068.06;4162080;83;21071;-82
2021/08/01 12:26:43;;;;;;;4.58;2.35;;;;;;;20.73;91.00;98057.27;4160051;83;21552;-83
2021/08/01 12:32:53;;;;;;;4.35;2.25;;;;;;;20.69;91.38;98059.45;4163260;83;21722;-82
2021/08/01 12:38:55;;;;;;;2.17;1.85;;;;;;;20.75;91.45;98058.98;4189542;83;21144;-82
2021/08/01 12:45:03;;;;;;;3.35;2.02;;;;;;;20.76;90.91;98048.78;4160961;83;21547;-83
2021/08/01 12:51:04;;;;;;;4.97;2.25;;;;;;;20.84;91.09;98050.62;4162012;83;21043;-82
2021/08/01 12:57:07;;;;;;;5.12;2.25;;;;;;;21.02;91.18;98062.52;4159095;83;21130;-82
2021/08/01 13:03:11;;;;;;;3.10;2.08;;;;;;;21.14;91.21;98055.98;4167541;83;21543;-82
2021/08/01 13:09:19;;;;;;;2.27;2.05;;;;;;;21.33;91.23;98045.59;4160733;83;20999;-82
2021/08/01 13:15:27;;;;;;;1.90;1.57;;;;;;;21.54;90.78;98026.47;4175730;83;21633;-82
2021/08/01 13:21:28;;;;;;;2.33;1.80;;;;;;;21.71;89.80;98038.77;4160488;83;21583;-83
2021/08/01 13:27:31;;;;;;;2.55;2.15;;;;;;;21.85;89.45;98040.89;4169040;83;21479;-83
2021/08/01 13:33:32;;;;;;;4.05;1.82;;;;;;;22.08;89.15;98030.38;4179934;83;21087;-83
2021/08/01 13:39:48;;;;;;;2.77;2.00;;;;;;;22.29;88.55;98020.16;4162344;83;21008;-83
2021/08/01 13:45:51;;;;;;;3.22;1.87;;;;;;;22.41;87.75;98011.55;4165573;83;21139;-84
2021/08/01 13:51:56;;;;;;;4.67;1.60;;;;;;;22.58;87.32;98013.31;4161219;83;21048;-84
2021/08/01 13:58:08;;;;;;;3.47;1.70;;;;;;;22.74;86.65;98008.68;4169759;83;21584;-83
2021/08/01 14:04:10;;;;;;;3.90;2.02;;;;;;;22.79;85.80;97996.83;4185360;83;21493;-84
2021/08/01 14:10:12;;;;;;;2.12;1.57;;;;;;;22.84;85.60;97989.97;4163632;83;21047;-83
2021/08/01 14:16:13;;;;;;;2.25;1.70;;;;;;;22.86;84.84;97986.08;4171305;83;21532;-84
2021/08/01 14:22:16;;;;;;;2.00;1.62;;;;;;;22.79;84.45;97981.48;4177802;83;21056;-83
2021/08/01 14:28:18;;;;;;;2.35;1.70;;;;;;;22.79;84.25;97980.09;4164752;83;21102;-83
2021/08/01 14:34:26;;;;;;;4.15;1.52;;;;;;;22.72;84.07;97976.30;4168008;83;21499;-83
2021/08/01 14:40:31;;;;;;;3.35;1.60;;;;;;;22.59;84.31;97983.55;4170227;83;21548;-84
2021/08/01 14:46:34;;;;;;;3.33;1.80;;;;;;;22.62;83.82;97980.41;4144927;84;21124;-85
2021/08/01 14:59:06;;;;;;;4.55;1.70;;;;;;;22.58;84.13;97954.74;4135145;83;21044;-84
2021/08/01 15:05:41;;;;;;;3.72;1.60;;;;;;;22.51;83.67;97936.95;4074385;86;21103;-84
2021/08/01 15:12:05;;;;;;;3.72;2.05;;;;;;;22.40;83.49;97908.25;4172888;83;21086;-84
2021/08/01 15:18:13;;;;;;;2.25;1.80;;;;;;;22.28;83.70;97888.39;4165045;83;21068;-85
2021/08/01 15:24:26;;;;;;;3.15;1.80;;;;;;;22.23;83.72;97889.05;4166037;83;21044;-83
2021/08/01 15:30:30;;;;;;;3.83;2.40;;;;;;;22.16;83.67;97876.13;4168492;83;21071;-84
2021/08/01 15:36:35;;;;;;;2.75;1.77;;;;;;;22.12;83.37;97883.27;4176324;83;21024;-85
2021/08/01 15:42:42;;;;;;;3.92;1.95;;;;;;;22.10;83.11;97878.04;4171807;83;21082;-84
2021/08/01 15:48:43;;;;;;;3.15;1.82;;;;;;;22.03;83.20;97882.58;4160932;83;21035;-85
2021/08/01 15:54:49;;;;;;;5.65;1.90;;;;;;;21.94;83.41;97870.88;4163912;83;21067;-84
2021/08/01 16:01:04;;;;;;;2.25;1.80;;;;;;;21.93;83.39;97872.13;4171649;83;21031;-83
2021/08/01 16:07:08;;;;;;;8.10;2.47;;;;;;;21.90;83.43;97887.02;4179364;83;21044;-83
2021/08/01 16:13:13;;;;;;;4.95;2.20;;;;;;;21.78;83.67;97893.62;4169910;83;21100;-83
2021/08/01 16:19:16;;;;;;;5.15;2.30;;;;;;;21.60;84.05;97879.17;4169223;83;21000;-84
2021/08/01 16:25:17;;;;;;;7.40;2.47;;;;;;;21.44;84.32;97863.48;4180460;83;20999;-84
2021/08/01 16:31:21;;;;;;;5.72;2.50;;;;;;;21.15;84.86;97854.41;4162980;83;21003;-83
2021/08/01 16:37:23;;;;;;;17.41;3.01;;;;;;;21.01;86.05;97852.31;4052104;82;9999767;-82
2021/08/01 16:43:29;;;;;;;8.23;2.58;;;;;;;20.88;86.62;97848.94;4177729;83;21599;-82
2021/08/01 16:50:01;;;;;;;;;;;;;;;20.80;87.01;97835.83;4177020;83;21602;-83
2021/08/01 16:56:14;;;;;;;5.15;3.08;;;;;;;20.68;88.39;97815.97;4124199;84;20122;-83
2021/08/01 17:10:07;;;;;;;8.95;4.15;;;;;;;20.20;89.49;97849.16;4163366;83;22305;-83
2021/08/01 17:16:11;;;;;;;5.65;4.10;;;;;;;20.07;90.33;97869.98;4168436;83;22042;-83
2021/08/01 17:29:02;;;;;;;6.92;4.50;;;;;;;20.23;91.40;97896.09;4190854;83;20962;-83
2021/08/01 17:42:03;;;;;;;11.73;4.85;;;;;;;20.20;92.44;97888.69;4007014;84;10000470;-83
2021/08/01 17:48:28;;;;;;;11.60;4.97;;;;;;;20.08;92.80;97902.86;4125124;84;21094;-84
2021/08/01 17:54:32;;;;;;;9.23;5.70;;;;;;;20.09;93.29;97900.86;4133175;84;21064;-84
2021/08/01 18:00:36;;;;;;;13.25;6.75;;;;;;;20.02;93.60;97917.22;4108619;83;21065;-84
2021/08/01 18:07:00;;;;;;;8.40;5.65;;;;;;;19.92;93.87;97910.75;4105047;84;21095;-83
2021/08/01 18:13:14;;;;;;;8.18;4.80;;;;;;;19.83;94.06;97899.61;4081494;84;21051;-82
2021/08/01 18:19:22;;;;;;;12.47;5.35;;;;;;;19.69;93.97;97879.40;4071903;85;21035;-84
2021/08/01 18:25:25;;;;;;;10.72;5.20;;;;;;;19.58;94.35;97865.98;4173672;83;21133;-83
2021/08/01 18:31:31;;;;;;;5.25;4.35;;;;;;;19.54;94.59;97863.20;4172473;83;21074;-83
2021/08/01 18:37:33;;;;;;;8.50;4.42;;;;;;;19.50;94.60;97857.80;4176043;83;21083;-83
2021/08/01 18:43:35;;;;;;;8.20;4.03;;;;;;;19.51;94.80;97864.12;4177076;83;21012;-83
2021/08/01 18:49:37;;;;;;;10.25;4.08;;;;;;;19.41;94.72;97862.56;4159976;83;21055;-82
2021/08/01 18:55:47;;;;;;;9.55;4.00;;;;;;;19.20;94.60;97889.78;4167971;83;21082;-82
2021/08/01 19:01:49;;;;;;;9.88;4.08;;;;;;;18.93;94.85;97893.84;4174648;82;21552;-81
2021/08/01 19:07:58;;;;;;;6.45;4.47;;;;;;;18.93;95.64;97911.27;4175564;83;21573;-81
2021/08/01 19:14:03;;;;;;;6.35;5.03;;;;;;;19.03;95.75;97899.59;4172691;83;21017;-81
2021/08/01 19:20:09;;;;;;;6.08;5.03;;;;;;;19.01;95.79;97900.05;4180317;83;21114;-82
2021/08/01 19:26:14;;;;;;;11.73;5.37;;;;;;;18.93;95.63;97913.26;4179676;83;21016;-82
2021/08/01 19:32:22;;;;;;;15.43;5.37;;;;;;;18.87;96.20;97908.15;4132683;84;21588;-82
2021/08/01 19:38:27;;;;;;;8.65;6.05;;;;;;;18.86;96.48;97920.45;4016214;84;9999709;-81
2021/08/01 19:44:30;;;;;;;8.00;5.80;;;;;;;18.89;96.62;97935.57;4125604;84;21032;-82
2021/08/01 19:50:32;;;;;;;8.85;5.45;;;;;;;18.91;96.73;97927.58;4133178;84;21717;-81
2021/08/01 19:56:34;;;;;;;8.68;4.97;;;;;;;18.82;96.33;97927.55;4137329;83;21422;-80
2021/08/01 20:02:40;;;;;;;6.37;4.25;;;;;;;18.68;96.30;97937.79;4139170;84;21106;-81
2021/08/01 20:08:41;;;;;;;11.57;4.80;;;;;;;18.63;96.39;97934.21;4040514;86;21091;-83
2021/08/01 20:14:43;;;;;;;10.65;4.67;;;;;;;18.60;97.13;97930.33;4181491;83;21004;-81
2021/08/01 20:20:44;;;;;;;13.05;5.78;;;;;;;18.64;97.12;97924.66;4167331;83;21082;-82
2021/08/01 20:26:45;;;;;;;15.18;6.03;;;;;;;18.63;97.30;97919.75;4168334;83;21300;-82
2021/08/01 20:32:46;;;;;;;10.25;7.53;;;;;;;18.64;97.48;97932.98;4174160;83;21053;-82
2021/08/01 20:38:49;;;;;;;14.38;7.03;;;;;;;18.57;97.50;97938.80;4174100;83;21067;-82
2021/08/01 20:44:51;;;;;;;9.30;6.03;;;;;;;18.44;97.54;97937.48;4166565;83;21523;-83
2021/08/01 20:51:17;;;;;;;8.38;4.70;;;;;;;18.41;97.86;97948.70;4159035;83;20999;-82
2021/08/01 20:57:19;;;;;;;8.45;4.83;;;;;;;18.34;97.53;97961.38;4165160;83;21640;-83
2021/08/01 21:03:32;;;;;;;10.95;4.65;;;;;;;18.22;97.90;97981.61;4161519;83;21082;-83
2021/08/01 21:09:33;;;;;;;4.03;1.92;;;;;;;18.09;97.58;97994.13;4173868;83;21539;-83
2021/08/01 21:15:35;;;;;;;5.87;2.25;;;;;;;17.90;97.63;98012.41;4168619;83;21033;-83
2021/08/01 21:21:57;;;;;;;5.70;1.30;;;;;;;17.72;97.73;98017.14;4180283;83;21143;-85
2021/08/01 21:28:04;;;;;;;4.22;0.82;;;;;;;17.57;98.05;98028.49;4163324;83;20996;-83
2021/08/01 21:34:05;;;;;;;2.75;1.60;;;;;;;17.42;97.59;98033.51;4140880;84;22324;-84
2021/08/01 21:40:08;;;;;;;3.15;2.22;;;;;;;17.26;97.96;98030.88;4179435;83;21016;-84
2021/08/01 21:46:11;;;;;;;3.35;2.40;;;;;;;17.10;97.91;98035.89;4174220;83;21031;-82
2021/08/01 21:52:12;;;;;;;5.53;2.65;;;;;;;17.00;98.19;98032.83;4187109;83;21001;-85
2021/08/01 21:58:14;;;;;;;5.95;2.52;;;;;;;16.95;98.20;98031.98;4169776;83;21110;-84
2021/08/01 22:04:23;;;;;;;9.55;2.87;;;;;;;16.83;98.23;98029.98;4155883;83;21412;-83
2021/08/01 22:10:25;;;;;;;6.47;2.47;;;;;;;16.86;98.62;98051.21;4171400;83;21608;-83
2021/08/01 22:16:26;;;;;;;4.10;2.33;;;;;;;16.76;98.36;98057.20;4171278;83;21067;-82
2021/08/01 22:22:29;;;;;;;7.42;2.80;;;;;;;16.69;98.39;98068.48;4178669;83;21099;-82
2021/08/01 22:28:39;;;;;;;6.40;3.17;;;;;;;16.72;98.66;98083.39;4174273;83;21038;-83
2021/08/01 22:34:40;;;;;;;4.95;3.50;;;;;;;16.68;98.52;98089.61;4175831;83;21503;-82
2021/08/01 22:40:43;;;;;;;7.95;3.60;;;;;;;16.63;98.51;98106.74;4174576;83;21031;-82
2021/08/01 22:46:46;;;;;;;6.72;4.40;;;;;;;16.61;98.80;98129.28;4165286;83;21606;-81
2021/08/01 22:52:47;;;;;;;7.97;4.15;;;;;;;16.60;98.69;98126.33;4166838;83;21047;-82
2021/08/01 22:58:48;;;;;;;9.55;3.27;;;;;;;16.56;98.80;98126.27;4157357;83;21019;-82
2021/08/01 23:04:59;;;;;;;4.97;3.15;;;;;;;16.52;98.81;98136.02;4168729;83;21039;-81
2021/08/01 23:11:14;;;;;;;8.33;3.20;;;;;;;16.48;98.99;98138.11;4165893;83;21035;-82
2021/08/01 23:18:06;;;;;;;5.10;3.58;;;;;;;16.47;98.82;98146.83;4169517;83;21413;-83
2021/08/01 23:24:12;;;;;;;4.70;3.67;;;;;;;16.46;98.86;98159.86;4151281;83;21147;-82
2021/08/01 23:30:20;;;;;;;3.95;3.17;;;;;;;16.50;99.22;98163.33;4177611;83;21017;-82
2021/08/01 23:36:31;;;;;;;10.18;3.92;;;;;;;16.46;99.16;98165.38;4163509;83;21092;-82
2021/08/01 23:42:49;;;;;;;4.72;3.77;;;;;;;16.49;99.05;98177.57;4167576;83;21103;-82
2021/08/01 23:48:50;;;;;;;9.48;3.55;;;;;;;16.47;99.23;98187.67;4181395;83;21084;-82
2021/08/01 23:55:08;;;;;;;8.10;3.77;;;;;;;16.45;99.30;98199.75;4172032;83;21067;-85
